GCLA/SPC METAR and TAF weather

Enter ICAO airport designator
Station Type Date Time Source
GCLA METAR 2021/03/09 10:30 UTC NOAA

GCLA 091030Z 02018KT 350V050 9999 FEW035 BKN045 19/12 Q1023


Station Type Date Time Source
GCLA Decoded METAR 2021/03/09 10:30 UTC NOAA

La Palma / Aeropuerto, Spain (GCLA) 28-37N 017-45W 31M
Mar 09, 2021 - 05:30 AM EST / 2021.03.09 1030 UTC
Wind: from the NNE (020 degrees) at 21 MPH (18 KT) (direction variable):0
Visibility: greater than 7 mile(s):0
Sky conditions: mostly cloudy
Temperature: 66 F (19 C)
Dew Point: 53 F (12 C)
Relative Humidity: 63%
Pressure (altimeter): 30.21 in. Hg (1023 hPa)
ob: GCLA 091030Z 02018KT 350V050 9999 FEW035 BKN045 19/12 Q1023
cycle: 10

Station Type Date Time Source
GCLA TAF 2021/03/09 09:29 UTC NOAA

TAF GCLA 090800Z 0909/1009 02017KT 9999 SCT040 TX20/0914Z TN16/1007Z PROB30
TEMPO 0909/0918 03015G25KT

Example: see airport list